createdAt,value
2018-04-07T00:00:24.568Z,98301.78
2018-04-07T00:00:56.204Z,98294.95
2018-04-07T00:01:27.843Z,98300.39
2018-04-07T00:01:59.460Z,98296.17
2018-04-07T00:02:31.101Z,98298.30
2018-04-07T00:03:02.717Z,98297.02
2018-04-07T00:03:34.316Z,98292.41
2018-04-07T00:04:05.929Z,98296.97
2018-04-07T00:04:37.544Z,98292.58
2018-04-07T00:05:09.150Z,98290.81
2018-04-07T00:05:40.755Z,98292.16
2018-04-07T00:06:12.335Z,98289.22
2018-04-07T00:06:43.923Z,98285.45
2018-04-07T00:07:15.584Z,98287.66
2018-04-07T00:07:47.173Z,98290.70
2018-04-07T00:08:18.785Z,98286.91
2018-04-07T00:08:50.376Z,98283.45
2018-04-07T00:09:21.966Z,98293.27
2018-04-07T00:09:53.547Z,98289.42
2018-04-07T00:10:25.183Z,98289.00
2018-04-07T00:10:56.798Z,98285.22
2018-04-07T00:11:28.388Z,98292.47
2018-04-07T00:11:59.973Z,98288.63
2018-04-07T00:12:31.599Z,98287.34
2018-04-07T00:13:03.207Z,98286.92
2018-04-07T00:13:34.802Z,98280.95
2018-04-07T00:14:06.394Z,98283.09
2018-04-07T00:14:37.980Z,98285.66
2018-04-07T00:15:09.578Z,98276.26
2018-04-07T00:15:41.173Z,98276.31
2018-04-07T00:16:12.771Z,98281.45
2018-04-07T00:16:44.383Z,98246.98
2018-04-07T00:17:15.962Z,98278.09
2018-04-07T00:17:47.593Z,98281.02
2018-04-07T00:18:19.231Z,98277.71
2018-04-07T00:18:50.844Z,98269.94
2018-04-07T00:19:22.474Z,98269.91
2018-04-07T00:19:54.084Z,98267.31
2018-04-07T00:20:25.700Z,98273.34
2018-04-07T00:20:57.293Z,98274.20
2018-04-07T00:21:28.881Z,98272.98
2018-04-07T00:22:00.473Z,98275.97
2018-04-07T00:22:32.095Z,98277.71
2018-04-07T00:23:03.720Z,98274.75
2018-04-07T00:23:35.333Z,98272.69
2018-04-07T00:24:06.949Z,98266.77
2018-04-07T00:24:38.604Z,98274.02
2018-04-07T00:25:10.218Z,98273.16
2018-04-07T00:25:41.795Z,98273.16
2018-04-07T00:26:13.405Z,98269.86
2018-04-07T00:26:44.996Z,98275.79
2018-04-07T00:27:16.583Z,98277.13
2018-04-07T00:27:48.192Z,98278.83
2018-04-07T00:28:19.781Z,98276.75
2018-04-07T00:28:51.388Z,98273.34
2018-04-07T00:29:23.175Z,98275.95
2018-04-07T00:29:54.794Z,98275.95
2018-04-07T00:30:26.390Z,98273.03
2018-04-07T00:30:57.981Z,98280.28
2018-04-07T00:31:29.588Z,98276.92
2018-04-07T00:32:01.181Z,98270.10
2018-04-07T00:32:32.763Z,98268.39
2018-04-07T00:33:04.384Z,98268.86
2018-04-07T00:33:35.997Z,98273.97
2018-04-07T00:34:07.612Z,98272.69
2018-04-07T00:34:39.251Z,98265.03
2018-04-07T00:35:10.860Z,98271.86
2018-04-07T00:35:42.472Z,98267.56
2018-04-07T00:36:14.047Z,98261.20
2018-04-07T00:36:45.622Z,98266.28
2018-04-07T00:37:17.227Z,98261.19
2018-04-07T00:37:48.829Z,98261.66
2018-04-07T00:38:20.413Z,98262.11
2018-04-07T00:38:52.004Z,98259.17
2018-04-07T00:39:23.612Z,98260.45
2018-04-07T00:39:55.388Z,98258.75
2018-04-07T00:40:27.020Z,98263.86
2018-04-07T00:40:58.620Z,98258.73
2018-04-07T00:41:30.234Z,98260.88
2018-04-07T00:42:01.824Z,98262.16
2018-04-07T00:42:33.432Z,98269.45
2018-04-07T00:43:05.060Z,98269.89
2018-04-07T00:43:36.650Z,98262.64
2018-04-07T00:44:08.250Z,98268.67
2018-04-07T00:44:39.854Z,98267.86
2018-04-07T00:45:11.473Z,98262.28
2018-04-07T00:45:43.060Z,98265.25
2018-04-07T00:46:14.664Z,98269.45
2018-04-07T00:46:46.249Z,98270.73
2018-04-07T00:47:18.022Z,98267.32
2018-04-07T00:47:49.603Z,98268.13
2018-04-07T00:48:21.224Z,98264.72
2018-04-07T00:48:52.888Z,98263.07
2018-04-07T00:49:24.480Z,98264.41
2018-04-07T00:49:56.078Z,98264.34
2018-04-07T00:50:27.687Z,98266.05
2018-04-07T00:50:59.283Z,98263.92
2018-04-07T00:51:31.139Z,98264.36
2018-04-07T00:52:02.724Z,98263.07
2018-04-07T00:52:34.303Z,98265.63
2018-04-07T00:53:05.906Z,98263.97
2018-04-07T00:53:37.513Z,98260.56
2018-04-07T00:54:09.169Z,98257.59
2018-04-07T00:54:40.787Z,98259.28
2018-04-07T00:55:12.403Z,98258.92
2018-04-07T00:55:44.060Z,98259.35
2018-04-07T00:56:15.663Z,98256.36
2018-04-07T00:56:47.276Z,98257.21
2018-04-07T00:57:18.908Z,98256.37
2018-04-07T00:57:50.540Z,98250.83
2018-04-07T00:58:22.196Z,98251.26
2018-04-07T00:58:53.848Z,98251.69
2018-04-07T00:59:25.431Z,98259.84
2018-04-07T00:59:57.020Z,98257.27
2018-04-07T01:00:28.606Z,98257.71
2018-04-07T01:01:00.271Z,98255.61
2018-04-07T01:01:31.926Z,98250.57
2018-04-07T01:02:03.519Z,98256.11
2018-04-07T01:02:35.128Z,98251.38
2018-04-07T01:03:06.707Z,98249.28
2018-04-07T01:03:38.297Z,98247.16
2018-04-07T01:04:09.884Z,98253.97
2018-04-07T01:04:41.466Z,98251.84
2018-04-07T01:05:13.042Z,98249.78
2018-04-07T01:05:44.686Z,98254.03
2018-04-07T01:06:16.270Z,98257.87
2018-04-07T01:06:47.907Z,98252.75
2018-04-07T01:07:19.490Z,98251.48
2018-04-07T01:07:51.076Z,98254.03
2018-04-07T01:08:22.664Z,98248.97
2018-04-07T01:08:54.248Z,98246.43
2018-04-07T01:09:25.841Z,98251.11
2018-04-07T01:09:57.443Z,98251.96
2018-04-07T01:10:29.022Z,98252.39
2018-04-07T01:11:00.616Z,98253.23
2018-04-07T01:11:32.249Z,98251.55
2018-04-07T01:12:03.854Z,98249.03
2018-04-07T01:12:35.465Z,98251.21
2018-04-07T01:13:07.096Z,98251.21
2018-04-07T01:13:38.688Z,98244.45
2018-04-07T01:14:10.299Z,98245.27
2018-04-07T01:14:41.913Z,98251.60
2018-04-07T01:15:13.524Z,98246.10
2018-04-07T01:15:45.152Z,98250.36
2018-04-07T01:16:16.745Z,98247.02
2018-04-07T01:16:48.376Z,98244.88
2018-04-07T01:17:20.024Z,98252.09
2018-04-07T01:17:51.617Z,98251.28
2018-04-07T01:18:23.206Z,98244.05
2018-04-07T01:18:54.792Z,98242.77
2018-04-07T01:19:26.405Z,98244.52
2018-04-07T01:19:58.024Z,98246.65
2018-04-07T01:20:29.641Z,98241.95
2018-04-07T01:21:01.218Z,98243.67
2018-04-07T01:21:32.828Z,98242.87
2018-04-07T01:22:04.416Z,98249.64
2018-04-07T01:22:36.080Z,98247.13
2018-04-07T01:23:07.662Z,98248.83
2018-04-07T01:23:39.248Z,98250.97
2018-04-07T01:24:10.832Z,98244.16
2018-04-07T01:24:42.440Z,98245.44
2018-04-07T01:25:14.028Z,98245.06
2018-04-07T01:25:45.626Z,98247.61
2018-04-07T01:26:17.215Z,98250.16
2018-04-07T01:26:48.828Z,98250.16
2018-04-07T01:27:20.472Z,98250.13
2018-04-07T01:27:52.181Z,98251.41
2018-04-07T01:28:23.758Z,98246.33
2018-04-07T01:28:55.344Z,98251.88
2018-04-07T01:29:26.984Z,98251.02
2018-04-07T01:29:58.576Z,98246.39
2018-04-07T01:30:30.174Z,98247.68
2018-04-07T01:31:01.754Z,98252.78
2018-04-07T01:31:33.358Z,98254.49
2018-04-07T01:32:04.953Z,98252.80
2018-04-07T01:32:36.551Z,98256.23
2018-04-07T01:33:08.202Z,98246.03
2018-04-07T01:33:39.797Z,98251.56
2018-04-07T01:34:11.404Z,98248.16
2018-04-07T01:34:42.993Z,98251.56
2018-04-07T01:35:14.604Z,98253.27
2018-04-07T01:35:46.204Z,98251.56
2018-04-07T01:36:17.774Z,98249.86
2018-04-07T01:36:49.352Z,98248.58
2018-04-07T01:37:20.936Z,98248.63
2018-04-07T01:37:52.552Z,98243.09
2018-04-07T01:38:24.204Z,98254.59
2018-04-07T01:38:55.815Z,98250.76
2018-04-07T01:39:27.452Z,98254.55
2018-04-07T01:39:59.054Z,98245.23
2018-04-07T01:40:30.702Z,98249.06
2018-04-07T01:41:02.319Z,98247.36
2018-04-07T01:41:33.910Z,98246.13
2018-04-07T01:42:05.520Z,98247.41
2018-04-07T01:42:37.151Z,98247.83
2018-04-07T01:43:08.792Z,98250.39
2018-04-07T01:43:40.385Z,98243.16
2018-04-07T01:44:11.973Z,98242.72
2018-04-07T01:44:43.578Z,98236.66
2018-04-07T01:45:15.159Z,98243.03
2018-04-07T01:45:46.772Z,98240.86
2018-04-07T01:46:18.384Z,98239.58
2018-04-07T01:46:49.996Z,98234.45
2018-04-07T01:47:21.588Z,98237.88
2018-04-07T01:47:53.177Z,98229.30
2018-04-07T01:48:24.794Z,98231.42
2018-04-07T01:48:56.428Z,98236.53
2018-04-07T01:49:28.036Z,98231.00
2018-04-07T01:49:59.652Z,98237.34
2018-04-07T01:50:31.292Z,98228.02
2018-04-07T01:51:02.880Z,98236.91
2018-04-07T01:51:34.464Z,98234.31
2018-04-07T01:52:06.038Z,98238.94
2018-04-07T01:52:37.652Z,98230.41
2018-04-07T01:53:09.273Z,98228.69
2018-04-07T01:53:40.855Z,98234.23
2018-04-07T01:54:12.440Z,98230.83
2018-04-07T01:54:44.042Z,98231.25
2018-04-07T01:55:15.651Z,98229.98
2018-04-07T01:55:47.304Z,98228.70
2018-04-07T01:56:18.896Z,98227.80
2018-04-07T01:56:50.504Z,98228.27
2018-04-07T01:57:22.088Z,98226.47
2018-04-07T01:57:53.700Z,98227.27
2018-04-07T01:58:25.314Z,98222.94
2018-04-07T01:58:56.900Z,98226.34
2018-04-07T01:59:28.512Z,98231.83
2018-04-07T02:00:00.184Z,98227.55
2018-04-07T02:00:31.772Z,98223.19
2018-04-07T02:01:03.354Z,98225.31
2018-04-07T02:01:34.935Z,98223.17
2018-04-07T02:02:06.510Z,98229.99
2018-04-07T02:02:38.103Z,98225.30
2018-04-07T02:03:09.702Z,98226.59
2018-04-07T02:03:41.282Z,98226.48
2018-04-07T02:04:12.855Z,98224.72
2018-04-07T02:04:44.449Z,98227.28
2018-04-07T02:05:16.095Z,98222.16
2018-04-07T02:05:47.709Z,98224.34
2018-04-07T02:06:19.304Z,98228.61
2018-04-07T02:06:50.911Z,98230.73
2018-04-07T02:07:22.524Z,98225.63
2018-04-07T02:07:54.111Z,98224.81
2018-04-07T02:08:25.746Z,98232.07
2018-04-07T02:08:57.326Z,98234.20
2018-04-07T02:09:28.931Z,98232.49
2018-04-07T02:10:00.510Z,98230.42
2018-04-07T02:10:32.114Z,98227.01
2018-04-07T02:11:03.705Z,98231.71
2018-04-07T02:11:35.351Z,98229.16
2018-04-07T02:12:06.972Z,98222.81
2018-04-07T02:12:38.554Z,98228.37
2018-04-07T02:13:10.155Z,98222.88
2018-04-07T02:13:41.763Z,98222.02
2018-04-07T02:14:13.348Z,98223.73
2018-04-07T02:14:44.932Z,98228.00
2018-04-07T02:15:16.520Z,98223.31
2018-04-07T02:15:48.340Z,98227.19
2018-04-07T02:16:19.922Z,98218.30
2018-04-07T02:16:51.506Z,98216.59
2018-04-07T02:17:23.090Z,98225.13
2018-04-07T02:17:54.700Z,98219.59
2018-04-07T02:18:26.288Z,98220.44
2018-04-07T02:18:57.891Z,98217.47
2018-04-07T02:19:29.471Z,98216.23
2018-04-07T02:20:01.080Z,98217.52
2018-04-07T02:20:32.692Z,98215.81
2018-04-07T02:21:04.309Z,98218.84
2018-04-07T02:21:35.899Z,98217.15
2018-04-07T02:22:07.476Z,98214.58
2018-04-07T02:22:39.112Z,98210.37
2018-04-07T02:23:10.687Z,98218.84
2018-04-07T02:23:42.262Z,98224.02
2018-04-07T02:24:13.876Z,98211.23
2018-04-07T02:24:45.456Z,98215.07
2018-04-07T02:25:17.044Z,98217.09
2018-04-07T02:25:48.632Z,98212.83
2018-04-07T02:26:20.214Z,98210.31
2018-04-07T02:26:51.828Z,98215.86
2018-04-07T02:27:23.424Z,98215.02
2018-04-07T02:27:55.046Z,98216.30
2018-04-07T02:28:26.632Z,98213.36
2018-04-07T02:28:58.220Z,98211.66
2018-04-07T02:29:29.799Z,98209.55
2018-04-07T02:30:01.414Z,98212.57
2018-04-07T02:30:33.009Z,98206.61
2018-04-07T02:31:04.598Z,98217.73
2018-04-07T02:31:36.193Z,98209.70
2018-04-07T02:32:07.800Z,98213.53
2018-04-07T02:32:39.458Z,98211.41
2018-04-07T02:33:11.078Z,98213.11
2018-04-07T02:33:42.690Z,98216.15
2018-04-07T02:34:14.290Z,98211.47
2018-04-07T02:34:45.880Z,98219.13
2018-04-07T02:35:17.495Z,98220.41
2018-04-07T02:35:49.088Z,98213.64
2018-04-07T02:36:20.674Z,98213.65
2018-04-07T02:36:52.289Z,98213.66
2018-04-07T02:37:23.867Z,98206.45
2018-04-07T02:37:55.501Z,98213.66
2018-04-07T02:38:27.096Z,98212.81
2018-04-07T02:38:58.675Z,98216.22
2018-04-07T02:39:30.277Z,98210.73
2018-04-07T02:40:01.867Z,98210.36
2018-04-07T02:40:33.475Z,98213.72
2018-04-07T02:41:05.096Z,98210.78
2018-04-07T02:41:36.752Z,98215.88
2018-04-07T02:42:08.331Z,98215.47
2018-04-07T02:42:39.936Z,98216.75
2018-04-07T02:43:11.540Z,98218.45
2018-04-07T02:43:43.129Z,98221.44
2018-04-07T02:44:14.744Z,98226.16
2018-04-07T02:44:46.333Z,98221.05
2018-04-07T02:45:17.914Z,98225.31
2018-04-07T02:45:49.541Z,98221.91
2018-04-07T02:46:21.134Z,98217.27
2018-04-07T02:46:52.756Z,98227.88
2018-04-07T02:47:24.363Z,98220.68
2018-04-07T02:47:55.953Z,98225.37
2018-04-07T02:48:27.552Z,98230.48
2018-04-07T02:48:59.136Z,98228.35
2018-04-07T02:49:30.768Z,98214.31
2018-04-07T02:50:02.358Z,98218.98
2018-04-07T02:50:33.945Z,98226.27
2018-04-07T02:51:05.541Z,98210.63
2018-04-07T02:51:37.114Z,98226.59
2018-04-07T02:52:08.745Z,98225.32
2018-04-07T02:52:40.338Z,98224.05
2018-04-07T02:53:11.956Z,98229.16
2018-04-07T02:53:43.548Z,98226.17
2018-04-07T02:54:15.127Z,98222.77
2018-04-07T02:54:46.712Z,98228.72
2018-04-07T02:55:18.327Z,98227.83
2018-04-07T02:55:50.034Z,98226.91
2018-04-07T02:56:21.639Z,98223.06
2018-04-07T02:56:53.238Z,98226.44
2018-04-07T02:57:24.829Z,98221.32
2018-04-07T02:57:56.444Z,98220.90
2018-04-07T02:58:28.056Z,98221.73
2018-04-07T02:58:59.671Z,98223.81
2018-04-07T02:59:31.279Z,98226.32
2018-04-07T03:00:02.876Z,98223.29
2018-04-07T03:00:34.513Z,98223.28
2018-04-07T03:01:06.091Z,98226.69
2018-04-07T03:01:37.694Z,98223.69
2018-04-07T03:02:09.332Z,98221.47
2018-04-07T03:02:40.940Z,98227.05
2018-04-07T03:03:12.552Z,98221.51
2018-04-07T03:03:44.217Z,98230.46
2018-04-07T03:04:15.774Z,98223.59
2018-04-07T03:04:47.354Z,98217.21
2018-04-07T03:05:18.927Z,98222.25
2018-04-07T03:05:50.548Z,98224.38
2018-04-07T03:06:22.141Z,98220.06
2018-04-07T03:06:53.752Z,98224.22
2018-04-07T03:07:25.384Z,98222.98
2018-04-07T03:07:57.017Z,98220.38
2018-04-07T03:08:28.636Z,98223.30
2018-04-07T03:09:00.219Z,98221.98
2018-04-07T03:09:31.837Z,98221.11
2018-04-07T03:10:03.432Z,98224.95
2018-04-07T03:10:35.020Z,98224.95
2018-04-07T03:11:06.604Z,98220.67
2018-04-07T03:11:38.203Z,98218.97
2018-04-07T03:12:09.813Z,98222.81
2018-04-07T03:12:41.403Z,98223.61
2018-04-07T03:13:12.992Z,98222.75
2018-04-07T03:13:44.576Z,98223.62
2018-04-07T03:14:16.312Z,98219.35
2018-04-07T03:14:47.924Z,98219.77
2018-04-07T03:15:19.511Z,98220.20
2018-04-07T03:15:51.096Z,98215.09
2018-04-07T03:16:22.680Z,98224.05
2018-04-07T03:16:54.272Z,98219.77
2018-04-07T03:17:25.914Z,98218.91
2018-04-07T03:17:57.569Z,98217.63
2018-04-07T03:18:29.181Z,98228.23
2018-04-07T03:19:00.778Z,98212.09
2018-04-07T03:19:32.368Z,98216.73
2018-04-07T03:20:03.956Z,98218.01
2018-04-07T03:20:35.569Z,98216.31
2018-04-07T03:21:07.167Z,98213.38
2018-04-07T03:21:38.799Z,98209.13
2018-04-07T03:22:10.411Z,98202.73
2018-04-07T03:22:42.002Z,98207.77
2018-04-07T03:23:13.656Z,98212.89
2018-04-07T03:23:45.250Z,98178.01
2018-04-07T03:24:16.846Z,98212.52
2018-04-07T03:24:48.436Z,98207.84
2018-04-07T03:25:20.024Z,98207.41
2018-04-07T03:25:51.613Z,98209.13
2018-04-07T03:26:23.225Z,98209.50
2018-04-07T03:26:54.880Z,98211.61
2018-04-07T03:27:26.498Z,98212.84
2018-04-07T03:27:58.088Z,98209.05
2018-04-07T03:28:29.700Z,98212.48
2018-04-07T03:29:01.288Z,98204.01
2018-04-07T03:29:32.877Z,98208.70
2018-04-07T03:30:04.496Z,98187.25
2018-04-07T03:30:36.079Z,98200.66
2018-04-07T03:31:07.730Z,98201.56
2018-04-07T03:31:39.389Z,98207.97
2018-04-07T03:32:11.008Z,98205.05
2018-04-07T03:32:42.605Z,98202.13
2018-04-07T03:33:14.190Z,98204.69
2018-04-07T03:33:45.801Z,98210.28
2018-04-07T03:34:17.416Z,98200.09
2018-04-07T03:34:49.033Z,98203.51
2018-04-07T03:35:20.628Z,98202.70
2018-04-07T03:35:52.212Z,98199.73
2018-04-07T03:36:23.806Z,98203.98
2018-04-07T03:36:55.495Z,98199.30
2018-04-07T03:37:27.124Z,98206.12
2018-04-07T03:37:58.753Z,98203.63
2018-04-07T03:38:30.360Z,98201.87
2018-04-07T03:39:01.949Z,98206.61
2018-04-07T03:39:33.536Z,98205.76
2018-04-07T03:40:05.110Z,98209.59
2018-04-07T03:40:36.716Z,98205.34
2018-04-07T03:41:08.327Z,98205.38
2018-04-07T03:41:39.931Z,98201.98
2018-04-07T03:42:11.606Z,98204.54
2018-04-07T03:42:43.251Z,98205.82
2018-04-07T03:43:14.826Z,98205.44
2018-04-07T03:43:46.418Z,98202.45
2018-04-07T03:44:18.017Z,98205.93
2018-04-07T03:44:49.628Z,98204.22
2018-04-07T03:45:21.244Z,98200.38
2018-04-07T03:45:52.854Z,98202.47
2018-04-07T03:46:24.472Z,98202.09
2018-04-07T03:46:56.074Z,98193.58
2018-04-07T03:47:27.689Z,98201.67
2018-04-07T03:47:59.341Z,98202.53
2018-04-07T03:48:30.952Z,98199.55
2018-04-07T03:49:02.572Z,98200.86
2018-04-07T03:49:34.151Z,98194.06
2018-04-07T03:50:05.740Z,98203.44
2018-04-07T03:50:37.368Z,98197.95
2018-04-07T03:51:08.971Z,98193.74
2018-04-07T03:51:40.556Z,98196.73
2018-04-07T03:52:12.158Z,98199.33
2018-04-07T03:52:43.784Z,98195.51
2018-04-07T03:53:15.417Z,98199.77
2018-04-07T03:53:47.013Z,98195.94
2018-04-07T03:54:18.607Z,98189.59
2018-04-07T03:54:50.197Z,98189.61
2018-04-07T03:55:21.784Z,98154.72
2018-04-07T03:55:53.383Z,98184.55
2018-04-07T03:56:24.962Z,98182.42
2018-04-07T03:56:56.548Z,98186.67
2018-04-07T03:57:28.180Z,98188.38
2018-04-07T03:57:59.762Z,98177.74
2018-04-07T03:58:31.418Z,98181.56
2018-04-07T03:59:03.041Z,98179.87
2018-04-07T03:59:34.656Z,98182.48
2018-04-07T04:00:06.239Z,98177.80
2018-04-07T04:00:37.856Z,98175.29
2018-04-07T04:01:09.451Z,98175.30
2018-04-07T04:01:41.055Z,98178.70
2018-04-07T04:02:12.627Z,98176.19
2018-04-07T04:02:44.236Z,98174.87
2018-04-07T04:03:15.839Z,98179.98
2018-04-07T04:03:47.504Z,98177.05
2018-04-07T04:04:19.127Z,98173.59
2018-04-07T04:04:50.741Z,98177.05
2018-04-07T04:05:22.334Z,98170.66
2018-04-07T04:05:53.931Z,98177.09
2018-04-07T04:06:25.530Z,98174.97
2018-04-07T04:06:57.129Z,98170.71
2018-04-07T04:07:28.755Z,98173.70
2018-04-07T04:08:00.348Z,98169.87
2018-04-07T04:08:32.000Z,98172.84
2018-04-07T04:09:03.616Z,98166.03
2018-04-07T04:09:35.204Z,98174.55
2018-04-07T04:10:06.837Z,98169.45
2018-04-07T04:10:38.420Z,98173.27
2018-04-07T04:11:10.003Z,98169.87
2018-04-07T04:11:41.589Z,98164.33
2018-04-07T04:12:13.231Z,98171.56
2018-04-07T04:12:44.904Z,98165.98
2018-04-07T04:13:16.518Z,98168.52
2018-04-07T04:13:48.113Z,98163.80
2018-04-07T04:14:19.744Z,98164.66
2018-04-07T04:14:51.332Z,98149.49
2018-04-07T04:15:22.916Z,98165.08
2018-04-07T04:15:54.524Z,98167.62
2018-04-07T04:16:26.141Z,98162.94
2018-04-07T04:16:57.722Z,98167.63
2018-04-07T04:17:29.308Z,98163.80
2018-04-07T04:18:00.963Z,98164.64
2018-04-07T04:18:32.576Z,98163.31
2018-04-07T04:19:04.172Z,98168.84
2018-04-07T04:19:35.784Z,98164.52
2018-04-07T04:20:07.372Z,98156.39
2018-04-07T04:20:38.959Z,98162.34
2018-04-07T04:21:10.579Z,98161.02
2018-04-07T04:21:42.179Z,98154.21
2018-04-07T04:22:13.768Z,98163.14
2018-04-07T04:22:45.343Z,98159.73
2018-04-07T04:23:16.931Z,98163.94
2018-04-07T04:23:48.525Z,98160.46
2018-04-07T04:24:20.140Z,98155.73
2018-04-07T04:24:51.803Z,98160.34
2018-04-07T04:25:23.420Z,98150.08
2018-04-07T04:25:55.013Z,98160.71
2018-04-07T04:26:26.594Z,98163.66
2018-04-07T04:26:58.180Z,98155.49
2018-04-07T04:27:29.787Z,98150.33
2018-04-07T04:28:01.363Z,98157.14
2018-04-07T04:28:33.032Z,98151.13
2018-04-07T04:29:04.620Z,98153.23
2018-04-07T04:29:36.216Z,98151.48
2018-04-07T04:30:07.818Z,98153.55
2018-04-07T04:30:39.408Z,98157.31
2018-04-07T04:31:11.000Z,98153.07
2018-04-07T04:31:42.607Z,98150.56
2018-04-07T04:32:14.222Z,98151.79
2018-04-07T04:32:45.831Z,98155.62
2018-04-07T04:33:17.448Z,98156.41
2018-04-07T04:33:49.038Z,98154.69
2018-04-07T04:34:20.615Z,98150.02
2018-04-07T04:34:52.228Z,98152.56
2018-04-07T04:35:23.820Z,98147.94
2018-04-07T04:35:55.409Z,98147.95
2018-04-07T04:36:27.054Z,98153.95
2018-04-07T04:36:58.664Z,98156.52
2018-04-07T04:37:30.282Z,98149.28
2018-04-07T04:38:01.874Z,98152.20
2018-04-07T04:38:33.454Z,98144.91
2018-04-07T04:39:05.075Z,98147.52
2018-04-07T04:39:36.692Z,98146.66
2018-04-07T04:40:08.308Z,98151.30
2018-04-07T04:40:39.884Z,98152.56
2018-04-07T04:41:11.489Z,98144.96
2018-04-07T04:41:43.096Z,98153.42
2018-04-07T04:42:14.756Z,98151.67
2018-04-07T04:42:46.352Z,98146.66
2018-04-07T04:43:17.936Z,98147.02
2018-04-07T04:43:49.530Z,98148.72
2018-04-07T04:44:21.139Z,98145.70
2018-04-07T04:44:52.752Z,98141.91
2018-04-07T04:45:24.344Z,98150.86
2018-04-07T04:45:55.956Z,98144.84
2018-04-07T04:46:27.578Z,98149.09
2018-04-07T04:46:59.177Z,98144.41
2018-04-07T04:47:30.808Z,98149.90
2018-04-07T04:48:02.383Z,98149.09
2018-04-07T04:48:34.012Z,98147.83
2018-04-07T04:49:05.610Z,98150.39
2018-04-07T04:49:37.228Z,98147.88
2018-04-07T04:50:08.844Z,98148.37
2018-04-07T04:50:40.422Z,98149.70
2018-04-07T04:51:12.036Z,98142.84
2018-04-07T04:51:43.638Z,98147.56
2018-04-07T04:52:15.262Z,98145.86
2018-04-07T04:52:46.864Z,98145.45
2018-04-07T04:53:18.519Z,98141.19
2018-04-07T04:53:50.132Z,98145.89
2018-04-07T04:54:21.744Z,98143.43
2018-04-07T04:54:53.323Z,98143.39
2018-04-07T04:55:24.913Z,98141.73
2018-04-07T04:55:56.524Z,98143.00
2018-04-07T04:56:28.126Z,98140.88
2018-04-07T04:56:59.716Z,98145.52
2018-04-07T04:57:31.301Z,98143.02
2018-04-07T04:58:02.889Z,98151.11
2018-04-07T04:58:34.490Z,98147.27
2018-04-07T04:59:06.095Z,98143.49
2018-04-07T04:59:37.671Z,98138.38
2018-04-07T05:00:09.263Z,98137.48
2018-04-07T05:00:40.876Z,98144.78
2018-04-07T05:01:12.450Z,98143.94
2018-04-07T05:01:44.038Z,98136.38
2018-04-07T05:02:15.648Z,98143.56
2018-04-07T05:02:47.262Z,98140.16
2018-04-07T05:03:18.872Z,98137.22
2018-04-07T05:03:50.552Z,98146.12
2018-04-07T05:04:22.173Z,98140.28
2018-04-07T05:04:53.764Z,98143.69
2018-04-07T05:05:25.358Z,98141.19
2018-04-07T05:05:56.976Z,98137.89
2018-04-07T05:06:28.589Z,98144.22
2018-04-07T05:07:00.200Z,98137.84
2018-04-07T05:07:31.780Z,98140.09
2018-04-07T05:08:03.400Z,98135.81
2018-04-07T05:08:35.018Z,98137.95
2018-04-07T05:09:06.655Z,98136.31
2018-04-07T05:09:38.267Z,98136.36
2018-04-07T05:10:09.879Z,98137.16
2018-04-07T05:10:41.468Z,98138.02
2018-04-07T05:11:13.079Z,98138.44
2018-04-07T05:11:44.679Z,98138.92
2018-04-07T05:12:16.283Z,98143.13
2018-04-07T05:12:47.904Z,98138.06
2018-04-07T05:13:19.499Z,98143.19
2018-04-07T05:13:51.083Z,98142.34
2018-04-07T05:14:22.748Z,98146.64
2018-04-07T05:14:54.341Z,98138.12
2018-04-07T05:15:25.948Z,98141.06
2018-04-07T05:15:57.572Z,98140.64
2018-04-07T05:16:29.176Z,98142.33
2018-04-07T05:17:00.767Z,98142.75
2018-04-07T05:17:32.366Z,98144.88
2018-04-07T05:18:03.960Z,98147.00
2018-04-07T05:18:35.567Z,98139.36
2018-04-07T05:19:07.154Z,98144.53
2018-04-07T05:19:38.836Z,98136.00
2018-04-07T05:20:10.476Z,98138.12
2018-04-07T05:20:42.050Z,98140.73
2018-04-07T05:21:13.660Z,98142.44
2018-04-07T05:21:45.254Z,98136.05
2018-04-07T05:22:16.866Z,98137.77
2018-04-07T05:22:48.484Z,98140.76
2018-04-07T05:23:20.120Z,98149.70
2018-04-07T05:23:51.739Z,98141.65
2018-04-07T05:24:23.355Z,98145.07
2018-04-07T05:24:54.988Z,98146.75
2018-04-07T05:25:26.590Z,98147.14
2018-04-07T05:25:58.184Z,98140.75
2018-04-07T05:26:29.769Z,98147.13
2018-04-07T05:27:01.397Z,98150.59
2018-04-07T05:27:32.988Z,98140.80
2018-04-07T05:28:04.600Z,98139.96
2018-04-07T05:28:36.213Z,98143.36
2018-04-07T05:29:07.832Z,98139.53
2018-04-07T05:29:39.444Z,98141.70
2018-04-07T05:30:11.056Z,98142.55
2018-04-07T05:30:42.648Z,98138.72
2018-04-07T05:31:14.222Z,98138.73
2018-04-07T05:31:45.886Z,98137.02
2018-04-07T05:32:17.500Z,98140.39
2018-04-07T05:32:49.096Z,98142.55
2018-04-07T05:33:20.681Z,98142.98
2018-04-07T05:33:52.284Z,98139.59
2018-04-07T05:34:23.909Z,98144.70
2018-04-07T05:34:55.511Z,98137.93
2018-04-07T05:35:27.115Z,98142.61
2018-04-07T05:35:58.723Z,98134.95
2018-04-07T05:36:30.310Z,98140.97
2018-04-07T05:37:01.928Z,98137.12
2018-04-07T05:37:33.507Z,98140.13
2018-04-07T05:38:05.111Z,98138.89
2018-04-07T05:38:36.742Z,98137.62
2018-04-07T05:39:08.323Z,98137.62
2018-04-07T05:39:39.906Z,98138.90
2018-04-07T05:40:11.508Z,98140.56
2018-04-07T05:40:43.120Z,98142.30
2018-04-07T05:41:14.710Z,98139.27
2018-04-07T05:41:46.296Z,98140.08
2018-04-07T05:42:17.962Z,98136.64
2018-04-07T05:42:49.578Z,98140.43
2018-04-07T05:43:21.197Z,98135.32
2018-04-07T05:43:52.794Z,98136.61
2018-04-07T05:44:24.407Z,98135.75
2018-04-07T05:44:55.986Z,98138.25
2018-04-07T05:45:27.564Z,98139.89
2018-04-07T05:45:59.161Z,98137.33
2018-04-07T05:46:30.783Z,98130.94
2018-04-07T05:47:02.368Z,98132.11
2018-04-07T05:47:34.020Z,98135.46
2018-04-07T05:48:05.637Z,98134.17
2018-04-07T05:48:37.228Z,98135.83
2018-04-07T05:49:08.822Z,98128.22
2018-04-07T05:49:40.426Z,98126.89
2018-04-07T05:50:12.027Z,98129.44
2018-04-07T05:50:43.680Z,98132.78
2018-04-07T05:51:15.292Z,98133.22
2018-04-07T05:51:46.884Z,98140.45
2018-04-07T05:52:18.462Z,98135.34
2018-04-07T05:52:50.058Z,98130.66
2018-04-07T05:53:21.672Z,98127.25
2018-04-07T05:53:53.260Z,98134.02
2018-04-07T05:54:24.844Z,98133.52
2018-04-07T05:54:56.436Z,98136.88
2018-04-07T05:55:28.085Z,98133.52
2018-04-07T05:55:59.700Z,98132.19
2018-04-07T05:56:31.318Z,98135.53
2018-04-07T05:57:02.908Z,98137.24
2018-04-07T05:57:34.496Z,98131.70
2018-04-07T05:58:06.104Z,98132.98
2018-04-07T05:58:37.696Z,98135.54
2018-04-07T05:59:09.307Z,98132.55
2018-04-07T05:59:40.910Z,98133.41
2018-04-07T06:00:12.771Z,98132.55
2018-04-07T06:00:44.398Z,98132.98
2018-04-07T06:01:16.008Z,98137.59
2018-04-07T06:01:47.615Z,98135.41
2018-04-07T06:02:19.228Z,98134.56
2018-04-07T06:02:50.836Z,98131.95
2018-04-07T06:03:22.433Z,98136.20
2018-04-07T06:03:54.052Z,98131.95
2018-04-07T06:04:25.669Z,98137.11
2018-04-07T06:04:57.274Z,98131.16
2018-04-07T06:05:28.910Z,98135.00
2018-04-07T06:06:00.520Z,98135.45
2018-04-07T06:06:32.114Z,98132.91
2018-04-07T06:07:03.709Z,98134.20
2018-04-07T06:07:35.336Z,98130.80
2018-04-07T06:08:06.934Z,98138.50
2018-04-07T06:08:38.640Z,98134.63
2018-04-07T06:09:10.261Z,98136.33
2018-04-07T06:09:41.848Z,98137.24
2018-04-07T06:10:13.443Z,98133.45
2018-04-07T06:10:45.081Z,98126.66
2018-04-07T06:11:16.655Z,98134.31